West Point, Ohio
Current Conditions -  °F | °C
As of 9:27 AM on Monday 26 Jan 2015 (Local Time) from KUCP Reporting Station
Light Snow Light Snow  
Wind Chill: 12°   Ceiling: 100
Heat Index: 21°   Visibility: 0.75mi
Dew Point: 19°   Wind: 8mph
Humidity: 93%   Direction: 10°N
Pressure: 29.77"   Gusts: NA
Location:  40.71°N, 80.7°W
Report Text: KUCP 261427Z AUTO 01007KT 3/4SM -SN BR OVC001 M06/M07 A2977 RMK AO2 P0000 $
Loading
Personal Weather Stations






























Interactive Weather Map New forecast layout! Learn more

10-Day Weather Forecast

Advertisements
Track Severe Weather on mobile